Time;durP1;ratioP1;P1;durP2;ratioP2;P2;SDS_P1;SDS_P2;PMS_P1;PMS_P2;Temp;Humidity;BMP_temperature;BMP_pressure;BME280_temperature;BME280_humidity;BME280_pressure;Samples;Min_cycle;Max_cycle;Signal;HPM_P1;HPM_P2
2024/03/15 00:02:15;;;;;;;6.25;3.70;;;8.80;74.20;;;;;;5097322;28;20199;-65
2024/03/15 00:04:42;;;;;;;8.48;4.07;;;8.80;74.30;;;;;;5096996;28;20181;-65
2024/03/15 00:07:09;;;;;;;8.32;4.82;;;8.80;74.30;;;;;;5097262;28;20501;-65
2024/03/15 00:09:36;;;;;;;9.65;4.50;;;8.70;74.10;;;;;;5097238;28;20216;-65
2024/03/15 00:12:04;;;;;;;8.32;5.97;;;8.70;74.30;;;;;;5097211;28;20192;-66
2024/03/15 00:14:31;;;;;;;8.60;5.10;;;8.70;74.80;;;;;;5097242;28;20211;-65
2024/03/15 00:16:58;;;;;;;8.20;4.88;;;8.70;74.50;;;;;;5097174;28;20216;-66
2024/03/15 00:19:25;;;;;;;8.68;5.10;;;8.60;74.10;;;;;;5096846;28;20248;-66
2024/03/15 00:21:52;;;;;;;10.68;4.32;;;8.60;74.30;;;;;;5097022;28;20192;-66
2024/03/15 00:24:19;;;;;;;5.00;3.15;;;8.60;75.00;;;;;;5097147;28;20235;-65
2024/03/15 00:26:46;;;;;;;7.30;3.25;;;8.60;75.20;;;;;;5096849;28;20185;-65
2024/03/15 00:29:13;;;;;;;5.65;2.97;;;8.60;75.40;;;;;;5096535;28;20279;-65
2024/03/15 00:31:40;;;;;;;4.65;2.85;;;8.60;75.90;;;;;;5096717;28;20184;-65
2024/03/15 00:34:07;;;;;;;6.13;2.25;;;8.70;76.40;;;;;;5096455;28;20215;-65
2024/03/15 00:36:35;;;;;;;3.88;2.40;;;8.60;75.20;;;;;;5096485;28;20249;-66
2024/03/15 00:39:02;;;;;;;3.58;1.95;;;8.60;74.30;;;;;;5096474;28;20211;-66
2024/03/15 00:41:29;;;;;;;4.63;2.05;;;8.60;74.20;;;;;;5096736;28;20184;-66
2024/03/15 00:43:56;;;;;;;3.35;2.15;;;8.60;74.00;;;;;;5096955;28;20188;-65
2024/03/15 00:46:23;;;;;;;3.05;2.00;;;8.60;74.20;;;;;;5096443;28;20549;-65
2024/03/15 00:48:50;;;;;;;4.53;2.42;;;8.60;74.10;;;;;;5096214;28;20180;-65
2024/03/15 00:51:17;;;;;;;4.40;1.65;;;8.50;74.80;;;;;;5096232;28;20696;-67
2024/03/15 00:53:46;;;;;;;2.80;1.80;;;8.50;75.80;;;;;;5096588;28;20274;-66
2024/03/15 00:56:13;;;;;;;4.28;2.03;;;8.50;76.30;;;;;;5096203;28;20230;-66
2024/03/15 00:58:40;;;;;;;2.90;1.77;;;8.50;76.90;;;;;;5096163;28;20627;-65
2024/03/15 01:01:07;;;;;;;5.13;2.35;;;8.50;77.30;;;;;;5096221;28;20678;-68
2024/03/15 01:03:34;;;;;;;3.35;2.15;;;8.60;76.50;;;;;;5096083;28;20210;-65
2024/03/15 01:06:01;;;;;;;3.53;2.35;;;8.60;76.30;;;;;;5096107;28;20235;-65
2024/03/15 01:08:29;;;;;;;3.30;2.20;;;8.60;76.60;;;;;;5095969;28;20188;-67
2024/03/15 01:11:00;;;;;;;3.90;2.35;;;8.50;76.00;;;;;;5096308;28;20194;-65
2024/03/15 01:13:30;;;;;;;4.40;2.40;;;8.50;75.80;;;;;;5095986;28;20204;-65
2024/03/15 01:16:01;;;;;;;3.88;1.98;;;8.50;74.70;;;;;;5096466;28;20175;-66
2024/03/15 01:18:29;;;;;;;3.60;2.10;;;8.50;75.10;;;;;;5096112;28;20260;-65
2024/03/15 01:20:56;;;;;;;4.18;2.45;;;8.50;75.20;;;;;;5095729;28;20226;-66
2024/03/15 01:23:23;;;;;;;5.88;3.38;;;8.50;75.90;;;;;;5096144;28;20184;-66
2024/03/15 01:25:50;;;;;;;6.65;4.07;;;8.50;76.10;;;;;;5096271;28;20184;-65
2024/03/15 01:28:19;;;;;;;6.05;3.80;;;8.50;76.50;;;;;;5096127;28;20586;-65
2024/03/15 01:30:47;;;;;;;5.45;3.30;;;8.50;76.90;;;;;;5096356;28;20537;-66
2024/03/15 01:33:14;;;;;;;4.78;2.35;;;8.40;77.30;;;;;;5096193;28;20542;-65
2024/03/15 01:35:42;;;;;;;3.33;1.80;;;8.50;77.50;;;;;;5095972;28;20579;-65
2024/03/15 01:38:09;;;;;;;4.00;1.85;;;8.50;77.60;;;;;;5096098;28;20535;-66
2024/03/15 01:40:36;;;;;;;3.80;2.20;;;8.40;77.40;;;;;;5095805;28;20236;-65
2024/03/15 01:43:03;;;;;;;3.50;2.00;;;8.40;76.70;;;;;;5095510;28;20238;-65
2024/03/15 01:45:31;;;;;;;3.25;2.20;;;8.50;76.10;;;;;;5095862;28;20188;-65
2024/03/15 01:47:59;;;;;;;4.57;1.80;;;8.40;76.60;;;;;;5096074;28;20184;-65
2024/03/15 01:50:26;;;;;;;2.55;1.50;;;8.40;77.60;;;;;;5095836;28;20260;-65
2024/03/15 01:52:54;;;;;;;3.80;1.80;;;8.30;78.60;;;;;;5096071;28;20492;-65
2024/03/15 01:55:22;;;;;;;2.50;1.48;;;8.20;79.40;;;;;;5095843;28;20187;-65
2024/03/15 01:57:49;;;;;;;2.72;1.10;;;8.30;79.80;;;;;;5096007;28;20200;-65
2024/03/15 02:00:16;;;;;;;4.25;1.75;;;8.30;79.70;;;;;;5095296;28;20237;-65
2024/03/15 02:02:43;;;;;;;2.60;1.77;;;8.30;79.70;;;;;;5095315;28;20276;-66
2024/03/15 02:05:11;;;;;;;3.95;1.77;;;8.30;79.20;;;;;;5095355;28;20188;-66
2024/03/15 02:07:38;;;;;;;2.90;1.63;;;8.20;78.70;;;;;;5097002;28;20188;-66
2024/03/15 02:10:11;;;;;;;2.72;1.70;;;8.20;78.70;;;;;;5099600;28;20231;-65
2024/03/15 02:12:38;;;;;;;3.47;1.83;;;8.20;79.40;;;;;;5099558;28;20336;-65
2024/03/15 02:15:06;;;;;;;2.65;1.35;;;8.20;80.10;;;;;;5099232;28;20184;-65
2024/03/15 02:17:34;;;;;;;2.50;1.35;;;8.10;80.10;;;;;;5099852;28;20199;-66
2024/03/15 02:20:01;;;;;;;2.20;1.45;;;8.20;80.00;;;;;;5084827;28;20671;-65
2024/03/15 02:22:28;;;;;;;2.45;1.40;;;8.10;80.00;;;;;;5079220;28;20189;-65
2024/03/15 02:24:55;;;;;;;2.92;1.55;;;8.10;80.10;;;;;;5078758;28;20261;-66
2024/03/15 02:27:23;;;;;;;2.40;1.48;;;8.00;80.50;;;;;;5078985;28;20262;-65
2024/03/15 02:29:51;;;;;;;3.95;1.38;;;8.10;80.00;;;;;;5079179;28;20271;-65
2024/03/15 02:32:19;;;;;;;3.25;1.75;;;8.00;80.60;;;;;;5079214;28;20193;-65
2024/03/15 02:34:46;;;;;;;2.97;1.77;;;8.00;80.90;;;;;;5078898;28;20277;-65
2024/03/15 02:37:13;;;;;;;3.67;1.85;;;7.90;80.60;;;;;;5078753;28;20193;-65
2024/03/15 02:39:40;;;;;;;3.75;1.33;;;7.90;81.20;;;;;;5078672;28;20596;-65
2024/03/15 02:42:07;;;;;;;2.53;1.10;;;7.90;80.90;;;;;;5078650;28;20181;-65
2024/03/15 02:44:34;;;;;;;4.10;1.80;;;7.90;80.90;;;;;;5078219;28;20192;-66
2024/03/15 02:47:03;;;;;;;3.08;1.83;;;8.00;80.80;;;;;;5078319;28;20628;-65
2024/03/15 02:49:30;;;;;;;2.80;1.80;;;8.00;80.30;;;;;;5078704;28;20197;-65
2024/03/15 02:51:57;;;;;;;2.40;1.38;;;8.00;80.00;;;;;;5078647;28;20219;-65
2024/03/15 02:54:24;;;;;;;2.80;1.50;;;8.00;79.90;;;;;;5078579;28;20583;-65
2024/03/15 02:56:51;;;;;;;3.20;1.33;;;8.00;79.60;;;;;;5078431;28;20533;-65
2024/03/15 02:59:19;;;;;;;2.88;1.50;;;8.10;79.30;;;;;;5078058;28;20189;-65
2024/03/15 03:01:46;;;;;;;2.47;1.50;;;8.10;78.60;;;;;;5078512;28;20181;-66
2024/03/15 03:04:14;;;;;;;3.00;1.65;;;8.10;78.30;;;;;;5078069;28;20195;-65
2024/03/15 03:06:42;;;;;;;2.60;1.52;;;8.20;78.10;;;;;;5077963;28;20193;-65
2024/03/15 03:09:09;;;;;;;4.40;1.58;;;8.30;77.30;;;;;;5078671;28;20196;-66
2024/03/15 03:11:37;;;;;;;2.90;1.60;;;8.30;77.20;;;;;;5078342;28;20243;-65
2024/03/15 03:14:05;;;;;;;2.85;1.85;;;8.30;77.00;;;;;;5077837;28;20643;-66
2024/03/15 03:16:34;;;;;;;2.58;1.30;;;8.30;76.70;;;;;;5078186;28;20185;-66
2024/03/15 03:19:01;;;;;;;2.30;1.20;;;8.30;76.50;;;;;;5079705;28;20213;-65
2024/03/15 03:21:28;;;;;;;2.53;1.55;;;8.30;76.20;;;;;;5094778;28;20665;-65
2024/03/15 03:23:57;;;;;;;2.85;1.92;;;8.30;76.10;;;;;;5094672;28;20181;-65
2024/03/15 03:26:24;;;;;;;3.17;1.63;;;8.30;75.70;;;;;;5094866;28;20188;-65
2024/03/15 03:28:51;;;;;;;2.72;1.58;;;8.40;75.70;;;;;;5094345;28;20185;-65
2024/03/15 03:31:21;;;;;;;2.40;1.25;;;8.40;75.50;;;;;;5094288;28;20220;-66
2024/03/15 03:33:48;;;;;;;5.00;1.13;;;8.40;75.60;;;;;;5094803;28;20501;-65
2024/03/15 03:36:16;;;;;;;2.75;1.50;;;8.40;75.30;;;;;;5094475;28;20185;-66
2024/03/15 03:38:44;;;;;;;3.05;1.60;;;8.40;75.00;;;;;;5076922;28;20697;-65
2024/03/15 03:41:11;;;;;;;2.92;1.50;;;8.40;74.90;;;;;;5094115;28;20608;-65
2024/03/15 03:43:38;;;;;;;4.82;1.15;;;8.40;74.90;;;;;;5094326;28;20181;-65
2024/03/15 03:46:06;;;;;;;2.65;1.17;;;8.40;74.80;;;;;;5094136;28;20192;-66
2024/03/15 03:48:33;;;;;;;2.30;1.10;;;8.40;74.70;;;;;;5094384;28;20181;-66
2024/03/15 03:51:01;;;;;;;3.85;1.55;;;8.40;74.90;;;;;;5077399;28;20193;-66
2024/03/15 03:53:30;;;;;;;2.40;1.23;;;8.40;75.00;;;;;;5094140;28;20239;-66
2024/03/15 03:55:57;;;;;;;3.47;1.30;;;8.40;75.00;;;;;;5093963;28;20272;-66
2024/03/15 03:58:24;;;;;;;2.50;1.30;;;8.40;75.00;;;;;;5093939;28;20224;-66
2024/03/15 04:00:51;;;;;;;2.30;1.13;;;8.40;75.10;;;;;;5093862;28;20266;-66
2024/03/15 04:03:18;;;;;;;3.30;1.40;;;8.40;75.20;;;;;;5093864;28;20192;-67
2024/03/15 04:05:45;;;;;;;2.55;1.27;;;8.40;75.20;;;;;;5093979;28;20582;-66
2024/03/15 04:08:13;;;;;;;2.90;1.40;;;8.40;75.40;;;;;;5093898;28;20188;-66
2024/03/15 04:10:40;;;;;;;2.25;1.23;;;8.30;75.70;;;;;;5077197;28;20228;-66
2024/03/15 04:13:07;;;;;;;2.50;1.42;;;8.30;76.30;;;;;;5093946;28;20212;-66
2024/03/15 04:15:35;;;;;;;2.97;1.35;;;8.30;76.40;;;;;;5093443;28;20601;-66
2024/03/15 04:18:02;;;;;;;2.90;1.50;;;8.30;76.50;;;;;;5093404;28;20705;-66
2024/03/15 04:20:30;;;;;;;2.58;1.55;;;8.30;76.50;;;;;;5093586;28;20217;-67
2024/03/15 04:22:57;;;;;;;2.67;1.55;;;8.40;76.30;;;;;;5093608;28;20485;-66
2024/03/15 04:25:25;;;;;;;4.40;1.40;;;8.40;76.00;;;;;;5093502;28;20216;-66
2024/03/15 04:27:53;;;;;;;2.60;1.60;;;8.40;76.10;;;;;;5093509;28;20189;-66
2024/03/15 04:30:22;;;;;;;2.17;1.10;;;8.40;75.80;;;;;;5093076;28;20602;-66
2024/03/15 04:32:49;;;;;;;3.78;1.40;;;8.40;75.70;;;;;;5093479;28;20272;-67
2024/03/15 04:35:17;;;;;;;2.90;1.63;;;8.30;75.70;;;;;;5093357;28;20517;-66
2024/03/15 04:37:45;;;;;;;3.80;1.80;;;8.30;76.00;;;;;;5093304;28;20199;-67
2024/03/15 04:40:14;;;;;;;2.85;1.50;;;8.30;76.00;;;;;;5093325;28;20211;-67
2024/03/15 04:42:41;;;;;;;3.20;1.35;;;8.30;76.10;;;;;;5093250;28;20591;-66
2024/03/15 04:45:09;;;;;;;2.70;1.50;;;8.40;76.30;;;;;;5093260;28;20184;-66
2024/03/15 04:47:37;;;;;;;2.10;1.15;;;8.40;76.40;;;;;;5093172;28;20211;-67
2024/03/15 04:50:05;;;;;;;3.45;1.60;;;8.40;76.10;;;;;;5093129;28;20243;-66
2024/03/15 04:52:33;;;;;;;5.07;1.48;;;8.40;75.90;;;;;;5076018;28;20195;-66
2024/03/15 04:55:00;;;;;;;2.72;1.20;;;8.50;75.80;;;;;;5092733;28;20623;-66
2024/03/15 04:57:27;;;;;;;2.58;1.23;;;8.40;75.20;;;;;;5093063;28;20585;-66
2024/03/15 04:59:55;;;;;;;3.03;1.50;;;8.40;74.90;;;;;;5092888;28;20224;-67
2024/03/15 05:02:22;;;;;;;3.15;1.80;;;8.40;74.60;;;;;;5093226;28;20193;-66
2024/03/15 05:04:49;;;;;;;2.92;1.65;;;8.40;74.30;;;;;;5093069;28;20193;-67
2024/03/15 05:07:16;;;;;;;4.35;1.70;;;8.40;74.30;;;;;;5092920;28;20276;-66
2024/03/15 05:09:43;;;;;;;3.15;1.33;;;8.40;74.00;;;;;;5076069;28;20633;-66
2024/03/15 05:12:12;;;;;;;3.10;1.13;;;8.40;74.30;;;;;;5092947;28;20196;-66
2024/03/15 05:14:39;;;;;;;2.75;1.30;;;8.30;74.50;;;;;;5092552;28;20180;-66
2024/03/15 05:17:06;;;;;;;3.70;1.40;;;8.20;74.90;;;;;;5092435;28;20239;-67
2024/03/15 05:19:34;;;;;;;2.60;1.15;;;8.10;75.40;;;;;;5096039;28;20212;-67
2024/03/15 05:22:03;;;;;;;2.78;1.42;;;8.10;75.80;;;;;;5096152;28;20216;-66
2024/03/15 05:24:30;;;;;;;2.22;1.27;;;8.10;75.90;;;;;;5095935;28;20631;-66
2024/03/15 05:26:58;;;;;;;3.60;1.40;;;8.10;76.30;;;;;;5096215;28;20195;-66
2024/03/15 05:29:25;;;;;;;2.45;1.30;;;8.10;76.50;;;;;;5095962;28;20204;-66
2024/03/15 05:31:52;;;;;;;6.13;1.30;;;8.10;76.20;;;;;;5095674;28;20647;-66
2024/03/15 05:34:19;;;;;;;3.33;1.77;;;8.10;76.00;;;;;;5095896;28;20287;-66
2024/03/15 05:36:46;;;;;;;2.55;1.25;;;8.10;75.80;;;;;;5095410;28;20184;-66
2024/03/15 05:39:13;;;;;;;7.30;2.22;;;8.10;76.00;;;;;;5095123;28;20184;-66
2024/03/15 05:41:40;;;;;;;5.07;2.15;;;8.10;76.20;;;;;;5095145;28;20208;-66
2024/03/15 05:44:09;;;;;;;3.22;1.60;;;8.20;76.40;;;;;;5099263;28;20192;-66
2024/03/15 05:46:36;;;;;;;4.10;1.70;;;8.20;76.40;;;;;;5099796;28;20194;-66
2024/03/15 05:49:03;;;;;;;5.50;3.15;;;8.30;75.80;;;;;;5099716;28;20227;-66
2024/03/15 05:51:30;;;;;;;8.73;4.95;;;8.30;75.60;;;;;;5099229;28;20184;-66
2024/03/15 05:53:57;;;;;;;7.82;4.10;;;8.30;75.40;;;;;;5099659;28;20184;-66
2024/03/15 05:56:25;;;;;;;6.55;3.38;;;8.30;76.10;;;;;;5099179;28;20188;-66
2024/03/15 05:58:52;;;;;;;4.85;3.08;;;8.30;75.20;;;;;;5099358;28;20188;-66
2024/03/15 06:01:19;;;;;;;6.38;2.95;;;8.30;75.40;;;;;;5099122;28;20671;-66
2024/03/15 06:03:46;;;;;;;5.53;2.38;;;8.40;75.60;;;;;;5099471;28;20188;-66
2024/03/15 06:06:13;;;;;;;4.25;2.42;;;8.40;75.40;;;;;;5099428;28;20230;-66
2024/03/15 06:08:42;;;;;;;11.13;2.50;;;8.40;75.20;;;;;;5099736;28;20215;-66
2024/03/15 06:11:11;;;;;;;4.97;2.20;;;8.40;75.30;;;;;;5099364;28;20521;-67
2024/03/15 06:13:38;;;;;;;4.20;2.28;;;8.50;75.10;;;;;;5099065;28;20195;-66
2024/03/15 06:16:05;;;;;;;3.92;1.65;;;8.50;74.90;;;;;;5098954;28;20196;-66
2024/03/15 06:18:34;;;;;;;2.90;1.05;;;8.50;74.70;;;;;;5098729;28;20658;-66
2024/03/15 06:21:01;;;;;;;6.70;4.35;;;8.50;74.50;;;;;;5099076;28;20220;-66
2024/03/15 06:23:30;;;;;;;10.80;8.95;;;8.40;74.50;;;;;;5099106;28;20227;-67
2024/03/15 06:25:58;;;;;;;16.05;8.30;;;8.40;75.00;;;;;;5098946;28;20203;-67
2024/03/15 06:28:25;;;;;;;10.43;7.20;;;8.40;75.00;;;;;;5098883;28;20192;-66
2024/03/15 06:30:54;;;;;;;6.60;4.45;;;8.40;75.20;;;;;;5098529;28;20224;-66
2024/03/15 06:33:22;;;;;;;5.03;2.40;;;8.50;75.50;;;;;;5099602;28;20184;-66
2024/03/15 06:35:54;;;;;;;5.20;3.13;;;8.50;75.10;;;;;;5098639;28;20188;-68
2024/03/15 06:38:30;;;;;;;4.78;2.65;;;8.60;75.20;;;;;;5098832;28;20172;-67
2024/03/15 06:41:07;;;;;;;8.20;4.35;;;8.60;74.90;;;;;;5100293;28;20295;-67
2024/03/15 06:43:42;;;;;;;9.10;5.15;;;8.70;74.70;;;;;;5100124;28;20180;-66
2024/03/15 06:46:19;;;;;;;9.93;5.93;;;8.60;74.80;;;;;;5099795;28;20587;-66
2024/03/15 06:48:55;;;;;;;6.95;6.03;;;8.70;75.20;;;;;;5099872;28;20187;-67
2024/03/15 06:54:08;;;;;;;7.03;3.65;;;8.90;74.90;;;;;;5100546;28;20172;-67
2024/03/15 06:56:36;;;;;;;5.60;3.35;;;8.90;75.60;;;;;;5098754;28;20548;-67
2024/03/15 06:59:03;;;;;;;4.45;2.15;;;9.00;76.10;;;;;;5098447;28;20195;-67
2024/03/15 07:01:30;;;;;;;6.05;2.20;;;9.10;75.80;;;;;;5097999;28;20257;-67
2024/03/15 07:03:58;;;;;;;3.53;2.03;;;9.30;75.60;;;;;;5098302;28;20534;-67
2024/03/15 07:06:27;;;;;;;4.50;2.08;;;9.40;76.00;;;;;;5098042;28;20279;-67
2024/03/15 07:08:57;;;;;;;2.80;1.45;;;9.50;76.20;;;;;;5098486;28;20188;-67
2024/03/15 07:11:29;;;;;;;5.22;1.80;;;9.60;76.10;;;;;;5098378;28;20270;-67
2024/03/15 07:13:57;;;;;;;5.53;2.13;;;9.70;75.80;;;;;;5098656;28;20263;-67
2024/03/15 07:16:24;;;;;;;5.10;2.70;;;9.80;75.20;;;;;;5098284;28;20186;-67
2024/03/15 07:18:52;;;;;;;7.70;3.17;;;9.80;75.20;;;;;;5097890;28;20208;-67
2024/03/15 07:21:21;;;;;;;6.70;2.83;;;9.90;75.70;;;;;;5097906;28;20552;-67
2024/03/15 07:23:48;;;;;;;4.00;2.90;;;10.00;74.50;;;;;;5098327;28;20674;-67
2024/03/15 07:26:15;;;;;;;5.45;3.45;;;10.00;74.80;;;;;;5097619;28;20188;-67
2024/03/15 07:28:44;;;;;;;3.88;2.90;;;10.00;74.40;;;;;;5097815;28;20188;-67
2024/03/15 07:31:11;;;;;;;4.68;2.88;;;10.10;73.60;;;;;;5097805;28;20192;-66
2024/03/15 07:33:38;;;;;;;7.28;3.42;;;10.10;72.70;;;;;;5097870;28;20192;-66
2024/03/15 07:36:07;;;;;;;6.97;4.18;;;10.20;71.60;;;;;;5097413;28;20188;-66
2024/03/15 07:38:34;;;;;;;8.00;4.53;;;10.30;71.00;;;;;;5097916;28;20188;-66
2024/03/15 07:41:02;;;;;;;4.65;3.13;;;10.40;70.50;;;;;;5097496;28;20401;-66
2024/03/15 07:43:29;;;;;;;3.45;2.58;;;10.50;69.40;;;;;;5097595;28;20283;-67
2024/03/15 07:45:56;;;;;;;7.03;3.65;;;10.60;68.80;;;;;;5097639;28;20545;-66
2024/03/15 07:48:23;;;;;;;7.55;3.00;;;10.60;67.60;;;;;;5097439;28;20184;-67
2024/03/15 07:50:50;;;;;;;4.28;2.08;;;10.70;67.60;;;;;;5097079;28;20192;-67
2024/03/15 07:53:18;;;;;;;4.17;3.00;;;10.90;67.40;;;;;;5097104;28;20230;-67
2024/03/15 07:55:45;;;;;;;4.30;2.30;;;11.00;67.10;;;;;;5097203;28;20434;-67
2024/03/15 07:58:12;;;;;;;4.20;1.57;;;11.10;67.10;;;;;;5097232;28;20483;-67
2024/03/15 08:00:39;;;;;;;4.87;2.40;;;11.20;66.20;;;;;;5097138;28;20458;-67
2024/03/15 08:03:07;;;;;;;8.80;6.03;;;11.30;66.50;;;;;;5097159;28;20474;-67
2024/03/15 08:05:34;;;;;;;9.73;5.05;;;11.40;65.80;;;;;;5095992;28;20519;-67
2024/03/15 08:08:01;;;;;;;4.32;2.63;;;11.50;64.70;;;;;;5097126;28;20199;-67
2024/03/15 08:10:28;;;;;;;5.00;2.67;;;11.60;64.80;;;;;;5096985;28;20574;-67
2024/03/15 08:12:55;;;;;;;4.57;1.80;;;11.70;64.60;;;;;;5096705;28;20438;-67
2024/03/15 08:15:23;;;;;;;2.83;1.70;;;11.80;64.50;;;;;;5096861;28;20517;-67
2024/03/15 08:17:50;;;;;;;4.23;1.80;;;11.80;64.30;;;;;;5096684;28;20477;-67
2024/03/15 08:20:17;;;;;;;3.30;1.50;;;11.80;64.10;;;;;;5096671;28;20549;-67
2024/03/15 08:22:44;;;;;;;2.90;1.87;;;11.90;64.30;;;;;;5096770;28;20794;-67
2024/03/15 08:25:11;;;;;;;3.27;1.80;;;12.00;64.00;;;;;;5096999;28;20426;-67
2024/03/15 08:27:41;;;;;;;6.00;1.83;;;12.00;64.30;;;;;;5096689;28;20479;-67
2024/03/15 08:30:12;;;;;;;3.27;2.00;;;12.10;62.40;;;;;;5097047;28;20473;-67
2024/03/15 08:32:40;;;;;;;3.17;2.03;;;12.20;63.00;;;;;;5097378;28;20422;-67
2024/03/15 08:35:13;;;;;;;5.20;2.03;;;12.30;63.20;;;;;;5096678;28;20433;-67
2024/03/15 08:37:42;;;;;;;3.10;2.00;;;12.40;63.70;;;;;;5097129;28;20418;-67
2024/03/15 08:40:14;;;;;;;4.93;1.93;;;12.50;63.30;;;;;;5096890;28;20434;-67
2024/03/15 08:42:41;;;;;;;2.80;1.47;;;12.50;63.50;;;;;;5097357;28;20460;-67
2024/03/15 08:45:09;;;;;;;3.27;1.77;;;12.60;64.40;;;;;;5096385;28;20453;-67
2024/03/15 08:47:39;;;;;;;8.10;2.30;;;12.70;63.30;;;;;;5096421;28;20501;-67
2024/03/15 08:50:11;;;;;;;5.43;2.23;;;12.80;63.70;;;;;;5096882;28;20483;-67
2024/03/15 08:52:41;;;;;;;4.23;2.80;;;12.90;63.70;;;;;;5096830;28;20427;-67
2024/03/15 08:55:10;;;;;;;6.13;2.30;;;12.90;64.00;;;;;;5096389;28;20414;-67
2024/03/15 08:57:38;;;;;;;4.20;2.33;;;13.00;64.90;;;;;;5096514;28;20438;-67
2024/03/15 09:00:12;;;;;;;4.20;2.80;;;13.10;65.70;;;;;;5096303;28;20457;-67
2024/03/15 09:02:39;;;;;;;5.30;2.43;;;13.20;64.20;;;;;;5096853;28;20507;-67
2024/03/15 09:05:08;;;;;;;5.20;2.23;;;13.20;64.00;;;;;;5079011;28;20437;-67
2024/03/15 09:07:41;;;;;;;6.27;3.43;;;13.30;64.00;;;;;;5096574;28;20437;-67
2024/03/15 09:10:13;;;;;;;4.40;1.83;;;13.50;64.70;;;;;;5096073;28;20475;-67
2024/03/15 09:12:40;;;;;;;3.30;1.90;;;13.60;63.60;;;;;;5096916;28;20434;-67
2024/03/15 09:15:11;;;;;;;3.20;1.70;;;13.80;62.60;;;;;;5095829;28;20422;-67
2024/03/15 09:17:38;;;;;;;4.03;2.23;;;14.00;62.40;;;;;;5096364;28;20426;-67
2024/03/15 09:20:14;;;;;;;6.83;1.90;;;14.10;61.70;;;;;;5095637;28;20494;-67
2024/03/15 09:22:41;;;;;;;5.50;2.10;;;14.20;61.90;;;;;;5096747;28;20958;-67
2024/03/15 09:25:15;;;;;;;4.27;2.47;;;14.30;62.70;;;;;;5095424;28;20513;-67
2024/03/15 09:27:42;;;;;;;3.10;1.70;;;14.40;62.50;;;;;;5096353;28;20422;-67
2024/03/15 09:30:17;;;;;;;4.73;2.40;;;14.50;61.10;;;;;;5095749;28;20430;-67
2024/03/15 09:32:44;;;;;;;3.53;1.67;;;14.60;61.00;;;;;;5096954;28;20825;-67
2024/03/15 09:35:13;;;;;;;4.47;2.80;;;14.60;62.20;;;;;;5095623;28;20426;-67
2024/03/15 09:37:46;;;;;;;4.10;2.40;;;14.60;61.30;;;;;;5095853;28;20758;-67
2024/03/15 09:40:16;;;;;;;3.70;2.07;;;14.70;61.20;;;;;;5096751;28;20836;-67
2024/03/15 09:42:43;;;;;;;3.33;2.30;;;14.70;61.10;;;;;;5095760;28;20868;-67
2024/03/15 09:45:12;;;;;;;3.60;1.70;;;14.70;61.00;;;;;;5095549;28;20431;-67
2024/03/15 09:47:40;;;;;;;4.27;2.50;;;14.70;61.00;;;;;;5095880;28;20430;-67
2024/03/15 09:50:11;;;;;;;4.10;2.40;;;14.70;61.60;;;;;;5095210;28;20469;-67
2024/03/15 09:52:39;;;;;;;3.53;2.03;;;14.70;62.10;;;;;;5095649;28;20418;-67
2024/03/15 09:55:13;;;;;;;4.20;2.23;;;14.70;62.80;;;;;;5095567;28;20479;-66
2024/03/15 09:57:43;;;;;;;4.53;2.73;;;14.60;63.30;;;;;;5096304;28;20458;-66
2024/03/15 10:00:13;;;;;;;4.10;1.80;;;14.60;64.70;;;;;;5095637;28;20806;-67
2024/03/15 10:02:40;;;;;;;5.03;2.53;;;14.60;64.90;;;;;;5095310;28;20843;-66
2024/03/15 10:05:08;;;;;;;4.47;2.03;;;14.60;65.20;;;;;;5095565;28;20429;-67
2024/03/15 10:07:36;;;;;;;8.43;2.47;;;14.60;66.00;;;;;;5095410;28;20855;-67
2024/03/15 10:10:05;;;;;;;3.67;2.60;;;14.60;66.20;;;;;;5095401;28;20432;-67
2024/03/15 10:12:34;;;;;;;4.87;2.10;;;14.60;67.10;;;;;;5095519;28;20462;-67
2024/03/15 10:15:01;;;;;;;6.00;3.00;;;14.60;67.50;;;;;;5095479;28;20426;-67
2024/03/15 10:17:31;;;;;;;3.90;2.53;;;14.60;67.70;;;;;;5094959;28;20431;-67
2024/03/15 10:19:58;;;;;;;4.63;2.20;;;14.60;66.90;;;;;;5095299;28;20466;-67
2024/03/15 10:22:26;;;;;;;3.30;2.13;;;14.60;67.30;;;;;;5095188;28;20947;-67
2024/03/15 10:24:53;;;;;;;3.30;2.17;;;14.70;67.30;;;;;;5095097;28;20430;-67
2024/03/15 10:27:22;;;;;;;5.87;2.23;;;14.60;67.10;;;;;;5095398;28;20487;-67
2024/03/15 10:29:49;;;;;;;4.50;3.00;;;14.60;66.90;;;;;;5098435;28;20534;-67
2024/03/15 10:32:16;;;;;;;4.57;2.47;;;14.60;67.40;;;;;;5098997;28;20434;-66
2024/03/15 10:34:43;;;;;;;4.47;2.13;;;14.60;67.70;;;;;;5098571;28;20434;-67
2024/03/15 10:37:10;;;;;;;3.60;2.17;;;14.70;67.50;;;;;;5098870;28;20908;-67
2024/03/15 10:39:37;;;;;;;5.47;2.13;;;14.60;67.40;;;;;;5098810;28;20434;-67
2024/03/15 10:42:04;;;;;;;4.00;1.97;;;14.70;67.00;;;;;;5098748;28;20561;-66
2024/03/15 10:44:32;;;;;;;3.17;1.93;;;14.70;67.00;;;;;;5098698;28;20491;-66
2024/03/15 10:46:59;;;;;;;3.30;2.10;;;14.80;67.50;;;;;;5098547;28;20438;-66
2024/03/15 10:49:26;;;;;;;5.90;3.50;;;14.80;67.10;;;;;;5098306;28;20426;-67
2024/03/15 10:51:53;;;;;;;4.13;2.60;;;14.80;66.50;;;;;;5098507;28;20510;-67
2024/03/15 10:54:20;;;;;;;7.80;3.73;;;14.80;66.00;;;;;;5098450;28;20968;-67
2024/03/15 10:56:48;;;;;;;4.30;2.87;;;14.90;66.20;;;;;;5098553;28;20438;-67
2024/03/15 10:59:15;;;;;;;6.83;3.50;;;14.90;65.70;;;;;;5098219;28;20520;-67
2024/03/15 11:01:42;;;;;;;5.17;3.20;;;15.00;66.00;;;;;;5098409;28;20814;-67
2024/03/15 11:04:11;;;;;;;4.40;2.60;;;15.00;65.80;;;;;;5097861;28;20506;-67
2024/03/15 11:06:41;;;;;;;7.63;3.03;;;15.00;65.00;;;;;;5097890;28;20518;-67
2024/03/15 11:09:14;;;;;;;3.53;2.03;;;15.00;65.00;;;;;;5098243;28;20521;-67
2024/03/15 11:11:41;;;;;;;3.70;2.23;;;15.10;65.60;;;;;;5098180;28;20430;-67
2024/03/15 11:14:21;;;;;;;4.93;2.43;;;15.10;65.50;;;;;;5098199;28;20776;-67
2024/03/15 11:16:56;;;;;;;4.27;2.40;;;15.20;64.40;;;;;;5097840;28;20450;-67
2024/03/15 11:19:23;;;;;;;4.40;2.17;;;15.20;64.40;;;;;;5098191;28;20505;-67
2024/03/15 11:21:50;;;;;;;4.03;1.97;;;15.20;64.50;;;;;;5097618;28;20419;-67
2024/03/15 11:24:17;;;;;;;3.37;2.07;;;15.30;63.40;;;;;;5097884;28;20492;-67
2024/03/15 11:26:50;;;;;;;4.90;2.20;;;15.40;64.00;;;;;;5097914;28;20480;-67
2024/03/15 11:29:17;;;;;;;4.03;2.83;;;15.40;64.30;;;;;;5098867;28;20423;-67
2024/03/15 11:31:46;;;;;;;4.70;2.40;;;15.40;64.50;;;;;;5097638;28;20442;-67
2024/03/15 11:34:12;;;;;;;5.40;1.80;;;15.50;64.10;;;;;;5097347;28;20518;-67
2024/03/15 11:36:40;;;;;;;3.30;1.77;;;15.50;64.70;;;;;;5097340;28;20432;-67
2024/03/15 11:39:10;;;;;;;3.70;2.83;;;15.60;65.10;;;;;;5097327;28;20426;-67
2024/03/15 11:41:39;;;;;;;5.23;2.37;;;15.60;62.40;;;;;;5096868;28;20484;-67
2024/03/15 11:44:06;;;;;;;4.07;2.73;;;15.70;60.90;;;;;;5097335;28;20657;-67
2024/03/15 11:46:33;;;;;;;3.30;2.20;;;15.90;60.70;;;;;;5097334;28;20435;-67
2024/03/15 11:49:05;;;;;;;4.60;1.77;;;16.00;60.50;;;;;;5097125;28;20438;-67
2024/03/15 11:51:32;;;;;;;7.53;2.90;;;16.20;59.50;;;;;;5098024;28;20421;-67
2024/03/15 11:53:59;;;;;;;4.53;2.47;;;16.30;59.50;;;;;;5097438;28;20817;-67
2024/03/15 11:56:26;;;;;;;4.60;2.00;;;16.50;59.10;;;;;;5097553;28;20472;-67
2024/03/15 11:59:02;;;;;;;2.70;1.80;;;16.70;57.60;;;;;;5097313;28;20494;-67
2024/03/15 12:01:29;;;;;;;5.10;1.63;;;16.80;58.30;;;;;;5097589;28;20486;-67
2024/03/15 12:03:56;;;;;;;3.10;1.80;;;16.90;58.30;;;;;;5097044;28;20467;-67
2024/03/15 12:06:23;;;;;;;4.47;1.60;;;17.10;57.10;;;;;;5096774;28;20918;-67
2024/03/15 12:08:50;;;;;;;5.33;2.00;;;17.20;57.00;;;;;;5096710;28;20490;-67
2024/03/15 12:11:19;;;;;;;3.47;1.80;;;17.30;56.60;;;;;;5096714;28;20472;-67
2024/03/15 12:13:52;;;;;;;3.37;2.13;;;17.40;55.60;;;;;;5097229;28;20441;-67
2024/03/15 12:16:19;;;;;;;4.17;2.50;;;17.40;55.00;;;;;;5097743;28;20433;-67
2024/03/15 12:18:46;;;;;;;4.90;2.50;;;17.40;54.30;;;;;;5092910;28;20458;-67
2024/03/15 12:21:13;;;;;;;3.90;2.00;;;17.40;54.80;;;;;;5076156;28;20462;-67
2024/03/15 12:23:40;;;;;;;3.93;2.17;;;17.40;54.60;;;;;;5076319;28;20757;-67
2024/03/15 12:26:14;;;;;;;3.80;1.87;;;17.50;54.50;;;;;;5076232;28;20446;-67
2024/03/15 12:28:41;;;;;;;4.00;1.50;;;17.70;53.70;;;;;;5076346;28;20458;-67
2024/03/15 12:31:08;;;;;;;4.33;1.40;;;17.80;53.60;;;;;;5076479;28;20768;-67
2024/03/15 12:33:35;;;;;;;2.80;1.30;;;17.80;50.40;;;;;;5075907;28;20906;-67
2024/03/15 12:36:04;;;;;;;3.20;1.73;;;18.00;50.40;;;;;;5077944;28;20835;-67
2024/03/15 12:38:34;;;;;;;4.37;1.77;;;18.00;49.60;;;;;;5078666;28;20435;-67
2024/03/15 12:41:02;;;;;;;6.43;1.77;;;17.90;49.60;;;;;;5060611;28;20431;-67
2024/03/15 12:43:29;;;;;;;3.53;2.30;;;17.90;50.00;;;;;;5077366;28;20474;-68
2024/03/15 12:45:56;;;;;;;3.73;1.70;;;17.80;49.00;;;;;;5075648;28;20423;-67
2024/03/15 12:48:23;;;;;;;4.03;1.90;;;17.70;49.60;;;;;;5075722;28;20916;-67
2024/03/15 12:50:50;;;;;;;4.77;1.87;;;17.60;50.00;;;;;;5075723;28;20439;-67
2024/03/15 12:53:17;;;;;;;4.40;1.80;;;17.60;50.40;;;;;;5075602;28;20628;-67
2024/03/15 12:55:47;;;;;;;4.43;2.27;;;17.60;49.90;;;;;;5075591;28;20499;-67
2024/03/15 12:58:14;;;;;;;4.17;2.10;;;17.50;49.90;;;;;;5075877;28;20906;-67
2024/03/15 13:00:41;;;;;;;4.43;2.43;;;17.50;50.40;;;;;;5075862;28;20517;-67